Terminal Aerodrome Forecast
Issued by NWS Blacksburg, VA

Home | Current Version | Previous Version | Text Only | Print | Product List | Glossary On
Versions: 1 2 3 4 5 6 7 8 9 10 11 12 13 14 15 16 17 18 19 20 21 22 23 24 25 26 27 28 29 30 31 32 33 34
300
FTUS41 KRNK 211830 AAA
TAFDAN
TAF AMD
KDAN 211830Z 2119/2218 25005KT P6SM VCSH BKN060
     FM212100 24006KT P6SM VCTS BKN050CB
     FM220100 VRB03KT P6SM SCT090
     FM221400 23004KT P6SM SCT070=

USA.gov is the U.S. government's official web portal to all federal, state and local government web resources and services.